Alexander City, AL

3:58 PM CDT on July 22, 2017 (GMT -0500)
Russell

Weather History for KALX - October, 2012

Change the Weather History Date:

Tuesday, October 30, 2012

  Actual Average (KAUO) Record (KAUO)
Temperature  
Mean Temperature 48 °F -  
Max Temperature 60 °F 72 °F 85 °F (2016)
Min Temperature 37 °F 47 °F 30 °F (1968)
Degree Days  
Heating Degree Days 16    
Moisture  
Dew Point 25 °F    
Average Humidity 41    
Maximum Humidity 82    
Minimum Humidity 17    
Precipitation  
Precipitation 0.00 in - - ()
Sea Level Pressure  
Sea Level Pressure 29.87 in    
Wind  
Wind Speed 9 mph (WNW)    
Max Wind Speed 20 mph    
Max Gust Speed 32 mph    
Visibility 10 miles    
Events      
Averages and records for this station are not official NWS values.
T = Trace of Precipitation, MM = Missing Value Source: NWS Daily Summary

Daily Weather History Graph

Daily Weather History Graph

Search for Another Location

Airport or City:

Trip Planner

Search our weather history database for the weather conditions in past years. The results will help you decide how hot, cold, wet, or windy it might be!

Date:

Astronomy

Oct. 30, 2012 Rise Set
Actual Time 7:00 AM CDT 5:54 PM CDT
Civil Twilight 6:35 AM CDT 6:19 PM CDT
Nautical Twilight 6:05 AM CDT 6:48 PM CDT
Astronomical Twilight 5:37 AM CDT 7:17 PM CDT
Moon 6:27 PM CDT (10/30) 7:42 AM CDT (10/30)
Length of Visible Light 11h 44m
Length of Day
10h 53m
Full, 99% of the Moon is Illuminated
Oct 30
Full
Nov 6
Last Quarter
Nov 13
New
Nov 20
First Quarter
Nov 28
Full

Hourly Weather History & Observations

Time (CDT) Temp. Windchill Dew Point Humidity Pressure Visibility Wind Dir Wind Speed Gust Speed Precip Events Conditions
12:15 AM 48.9 °F - 24.6 °F 39% 29.90 in 10.0 mi NW 8.1 mph - N/A   Clear
12:35 AM 48.4 °F - 24.6 °F 39% 29.90 in 10.0 mi NW 6.9 mph - N/A   Clear
12:55 AM 48.4 °F - 24.8 °F 40% 29.90 in 10.0 mi NW 6.9 mph - N/A   Clear
1:15 AM 46.2 °F 43.3 °F 25.0 °F 43% 29.89 in 10.0 mi West 5.8 mph - N/A   Clear
1:35 AM 43.3 °F 39.2 °F 24.8 °F 48% 29.88 in 10.0 mi West 6.9 mph - N/A   Clear
2:55 AM 47.3 °F - 27.9 °F 47% 29.86 in 10.0 mi NW 10.4 mph 16.1 mph N/A   Clear
3:15 AM 47.3 °F - 28.2 °F 48% 29.85 in 10.0 mi NW 10.4 mph 17.3 mph N/A   Clear
3:55 AM 47.3 °F - 28.9 °F 49% 29.85 in 10.0 mi NW 12.7 mph 19.6 mph N/A   Clear
4:15 AM 45.9 °F 40.8 °F 28.0 °F 50% 29.85 in 10.0 mi WNW 10.4 mph 17.3 mph N/A   Clear
4:35 AM 46.2 °F 40.5 °F 28.4 °F 50% 29.85 in 10.0 mi WNW 12.7 mph 18.4 mph N/A   Clear
4:55 AM 44.6 °F 38.8 °F 27.1 °F 50% 29.85 in 10.0 mi WNW 11.5 mph 17.3 mph N/A   Clear
5:15 AM 43.7 °F 39.7 °F 27.3 °F 53% 29.86 in 10.0 mi WNW 6.9 mph - N/A   Clear
5:35 AM 42.8 °F 37.5 °F 28.0 °F 56% 29.86 in 10.0 mi WNW 9.2 mph - N/A   Clear
5:55 AM 42.1 °F 36.6 °F 28.2 °F 58% 29.85 in 10.0 mi WNW 9.2 mph - N/A   Clear
6:15 AM 42.1 °F 37.1 °F 28.4 °F 58% 29.86 in 10.0 mi WNW 8.1 mph - N/A   Clear
6:35 AM 42.1 °F 37.7 °F 28.9 °F 60% 29.87 in 10.0 mi WNW 6.9 mph - N/A   Clear
6:55 AM 41.4 °F 36.8 °F 28.8 °F 61% 29.87 in 10.0 mi WNW 6.9 mph - N/A   Clear
7:15 AM 41.0 °F 38.0 °F 28.4 °F 61% 29.87 in 10.0 mi WNW 4.6 mph - N/A   Clear
7:35 AM 41.5 °F 36.4 °F 28.8 °F 60% 29.88 in 10.0 mi WNW 8.1 mph - N/A   Clear
7:55 AM 42.1 °F 36.6 °F 28.2 °F 58% 29.88 in 10.0 mi WNW 9.2 mph - N/A   Clear
8:15 AM 43.3 °F 39.2 °F 28.4 °F 56% 29.89 in 10.0 mi West 6.9 mph - N/A   Clear
8:35 AM 47.3 °F - 29.5 °F 50% 29.89 in 10.0 mi WNW 8.1 mph - N/A   Clear
8:55 AM 49.6 °F - 26.4 °F 41% 29.89 in 10.0 mi NW 16.1 mph 24.2 mph N/A   Clear
9:15 AM 49.6 °F - 23.9 °F 37% 29.89 in 10.0 mi NW 12.7 mph 20.7 mph N/A   Clear
9:35 AM 50.9 °F - 22.5 °F 33% 29.89 in 10.0 mi WNW 12.7 mph 28.8 mph N/A   Clear
9:55 AM 52.2 °F - 22.1 °F 31% 29.89 in 10.0 mi NW 16.1 mph 21.9 mph N/A   Clear
10:15 AM 54.7 °F - 22.3 °F 28% 29.89 in 10.0 mi NW 11.5 mph 20.7 mph N/A   Clear
10:35 AM 54.7 °F - 22.3 °F 28% 29.89 in 10.0 mi WNW 11.5 mph 32.2 mph N/A   Clear
10:55 AM 54.7 °F - 21.9 °F 28% 29.89 in 10.0 mi NW 15.0 mph 23.0 mph N/A   Clear
11:15 AM 56.1 °F - 18.1 °F 23% 29.89 in 10.0 mi WNW 13.8 mph 27.6 mph N/A   Clear
11:35 AM 57.2 °F - 15.3 °F 19% 29.88 in 10.0 mi NW 13.8 mph 24.2 mph N/A   Clear
11:55 AM 57.2 °F - 12.7 °F 17% 29.87 in 10.0 mi NW 16.1 mph 28.8 mph N/A   Clear
12:15 PM 57.4 °F - 16.5 °F 20% 29.86 in 10.0 mi West 18.4 mph 25.3 mph N/A   Clear
12:35 PM 58.5 °F - 14.4 °F 18% 29.86 in 10.0 mi NW 19.6 mph 28.8 mph N/A   Clear
12:55 PM 59.9 °F - 16.5 °F 18% 29.85 in 10.0 mi NW 16.1 mph 26.5 mph N/A   Clear
1:15 PM 59.9 °F - 14.4 °F 17% 29.84 in 10.0 mi NW 12.7 mph 25.3 mph N/A   Clear
1:35 PM 59.9 °F - 15.3 °F 18% 29.84 in 10.0 mi NW 18.4 mph 25.3 mph N/A   Clear
1:55 PM 60.1 °F - 14.7 °F 17% 29.83 in 10.0 mi WNW 17.3 mph 26.5 mph N/A   Clear
2:15 PM 60.3 °F - 17.4 °F 19% 29.83 in 10.0 mi WNW 17.3 mph 26.5 mph N/A   Clear
2:35 PM 59.9 °F - 19.8 °F 21% 29.83 in 10.0 mi WNW 13.8 mph 24.2 mph N/A   Clear
2:55 PM 59.9 °F - 20.3 °F 22% 29.83 in 10.0 mi WNW 12.7 mph 26.5 mph N/A   Clear
3:15 PM 60.4 °F - 19.8 °F 21% 29.82 in 10.0 mi West 13.8 mph 24.2 mph N/A   Clear
3:35 PM 59.9 °F - 19.4 °F 21% 29.82 in 10.0 mi West 11.5 mph 27.6 mph N/A   Clear
3:55 PM 60.1 °F - 20.8 °F 22% 29.82 in 10.0 mi West 8.1 mph 18.4 mph N/A   Clear
4:15 PM 59.9 °F - 20.1 °F 22% 29.82 in 10.0 mi West 12.7 mph 21.9 mph N/A   Clear
4:35 PM 59.9 °F - 20.3 °F 22% 29.82 in 10.0 mi WNW 12.7 mph 18.4 mph N/A   Clear
4:55 PM 59.9 °F - 21.4 °F 23% 29.83 in 10.0 mi WNW 15.0 mph 19.6 mph N/A   Clear
5:15 PM 59.9 °F - 22.3 °F 24% 29.83 in 10.0 mi West 8.1 mph 19.6 mph N/A   Clear
5:35 PM 57.4 °F - 21.2 °F 25% 29.84 in 10.0 mi West 10.4 mph 19.6 mph N/A   Clear
5:55 PM 57.2 °F - 22.8 °F 27% 29.84 in 10.0 mi WNW 8.1 mph - N/A   Clear
6:15 PM 54.7 °F - 23.0 °F 29% 29.85 in 10.0 mi WNW 8.1 mph - N/A   Clear
6:35 PM 54.7 °F - 25.3 °F 32% 29.86 in 10.0 mi WNW 5.8 mph - N/A   Clear
6:55 PM 54.7 °F - 26.6 °F 34% 29.87 in 10.0 mi West 4.6 mph - N/A   Clear
7:15 PM 54.7 °F - 28.2 °F 36% 29.87 in 10.0 mi West 4.6 mph - N/A   Clear
7:35 PM 52.2 °F - 27.5 °F 39% 29.88 in 10.0 mi West 4.6 mph - N/A   Clear
7:55 PM 50.4 °F - 27.7 °F 42% 29.88 in 10.0 mi West 4.6 mph - N/A   Clear
8:15 PM 49.6 °F - 27.5 °F 42% 29.89 in 10.0 mi West 3.5 mph - N/A   Clear
8:35 PM 49.6 °F - 27.5 °F 42% 29.90 in 10.0 mi Calm Calm - N/A   Clear
8:55 PM 49.6 °F - 29.5 °F 46% 29.90 in 10.0 mi Calm Calm - N/A   Clear
9:15 PM 47.3 °F - 37.9 °F 70% 29.91 in 10.0 mi Calm Calm - N/A   Clear
9:35 PM 41.4 °F - 32.9 °F 72% 29.91 in 10.0 mi Calm Calm - N/A   Clear
9:55 PM 40.8 °F - 33.4 °F 75% 29.91 in 10.0 mi Calm Calm - N/A   Clear
10:15 PM 40.5 °F - 33.8 °F 77% 29.91 in 10.0 mi Calm Calm - N/A   Clear
10:35 PM 39.6 °F - 34.0 °F 80% 29.92 in 10.0 mi Calm Calm - N/A   Clear
10:55 PM 37.0 °F - 32.0 °F 82% 29.92 in 10.0 mi Calm Calm - N/A   Clear
11:15 PM 39.6 °F - 34.0 °F 80% 29.92 in 10.0 mi Calm Calm - N/A   Clear
11:35 PM 39.6 °F - 32.9 °F 77% 29.92 in 10.0 mi Calm Calm - N/A   Clear
11:55 PM 42.1 °F 40.2 °F 33.1 °F 70% 29.92 in 10.0 mi West 3.5 mph - N/A   Clear